createdAt,value
2024-01-11T00:01:15.306Z,45.33
2024-01-11T00:03:42.315Z,42.13
2024-01-11T00:06:10.005Z,41.28
2024-01-11T00:08:37.309Z,40.20
2024-01-11T00:11:05.039Z,41.28
2024-01-11T00:13:32.045Z,36.17
2024-01-11T00:15:59.337Z,39.03
2024-01-11T00:18:26.544Z,35.25
2024-01-11T00:20:54.082Z,33.75
2024-01-11T00:23:21.186Z,34.67
2024-01-11T00:25:48.535Z,35.97
2024-01-11T00:28:15.549Z,35.58
2024-01-11T00:30:42.834Z,35.97
2024-01-11T00:33:10.661Z,37.58
2024-01-11T00:35:38.173Z,35.70
2024-01-11T00:38:05.354Z,36.17
2024-01-11T00:40:32.600Z,36.50
2024-01-11T00:42:59.647Z,37.00
2024-01-11T00:45:26.974Z,32.33
2024-01-11T00:47:54.649Z,36.10
2024-01-11T00:50:22.693Z,37.25
2024-01-11T00:52:49.779Z,40.83
2024-01-11T00:55:17.514Z,39.58
2024-01-11T00:57:44.462Z,48.33
2024-01-11T01:00:16.019Z,49.60
2024-01-11T01:02:43.646Z,52.05
2024-01-11T01:05:11.340Z,50.53
2024-01-11T01:07:39.890Z,48.47
2024-01-11T01:10:53.034Z,44.70
2024-01-11T01:13:20.228Z,40.95
2024-01-11T01:15:47.674Z,42.17
2024-01-11T01:18:14.774Z,42.22
2024-01-11T01:20:42.295Z,50.55
2024-01-11T01:23:09.376Z,43.13
2024-01-11T01:25:36.818Z,42.17
2024-01-11T01:28:04.260Z,42.35
2024-01-11T01:30:31.699Z,42.05
2024-01-11T01:32:58.783Z,40.03
2024-01-11T01:35:26.162Z,40.60
2024-01-11T01:37:53.168Z,37.53
2024-01-11T01:40:20.521Z,37.00
2024-01-11T01:42:47.690Z,39.88
2024-01-11T01:45:16.963Z,41.78
2024-01-11T01:47:45.792Z,41.00
2024-01-11T01:50:14.481Z,41.03
2024-01-11T01:52:44.937Z,38.55
2024-01-11T01:55:16.105Z,39.17
2024-01-11T01:57:46.016Z,39.85
2024-01-11T02:00:14.734Z,41.58
2024-01-11T02:02:48.450Z,40.72
2024-01-11T02:05:19.091Z,38.53
2024-01-11T02:07:46.533Z,38.10
2024-01-11T02:10:13.910Z,44.08
2024-01-11T02:12:42.735Z,71.32
2024-01-11T02:15:10.438Z,74.32
2024-01-11T02:17:37.869Z,73.78
2024-01-11T02:20:06.162Z,72.32
2024-01-11T02:22:41.668Z,69.55
2024-01-11T02:25:09.518Z,57.83
2024-01-11T02:27:47.984Z,60.88
2024-01-11T02:30:16.447Z,55.05
2024-01-11T02:32:49.933Z,58.90
2024-01-11T02:35:18.122Z,49.92
2024-01-11T02:37:47.714Z,72.10
2024-01-11T02:40:16.369Z,70.88
2024-01-11T02:42:43.543Z,72.93
2024-01-11T02:45:15.903Z,63.63
2024-01-11T02:47:43.196Z,52.88
2024-01-11T02:50:13.076Z,45.28
2024-01-11T02:52:40.367Z,42.08
2024-01-11T02:55:08.042Z,41.08
2024-01-11T02:57:34.986Z,39.05
2024-01-11T03:00:02.327Z,38.83
2024-01-11T03:02:29.570Z,37.80
2024-01-11T03:04:56.975Z,36.75
2024-01-11T03:07:24.005Z,35.65
2024-01-11T03:09:51.303Z,39.42
2024-01-11T03:12:18.302Z,36.63
2024-01-11T03:14:45.541Z,35.80
2024-01-11T03:17:12.592Z,34.50
2024-01-11T03:19:43.301Z,35.33
2024-01-11T03:22:13.303Z,32.35
2024-01-11T03:24:40.832Z,36.08
2024-01-11T03:27:07.994Z,33.13
2024-01-11T03:29:35.404Z,36.97
2024-01-11T03:32:02.620Z,34.63
2024-01-11T03:34:29.927Z,37.13
2024-01-11T03:36:57.031Z,37.42
2024-01-11T03:39:26.661Z,34.70
2024-01-11T03:41:53.900Z,33.15
2024-01-11T03:44:21.224Z,37.67
2024-01-11T03:46:48.299Z,35.70
2024-01-11T03:49:15.644Z,38.53
2024-01-11T03:51:42.653Z,36.13
2024-01-11T03:54:10.060Z,35.60
2024-01-11T03:56:40.754Z,38.08
2024-01-11T03:59:08.325Z,35.78
2024-01-11T04:01:42.136Z,39.33
2024-01-11T04:04:09.878Z,36.42
2024-01-11T04:06:37.024Z,42.60
2024-01-11T04:09:04.405Z,41.35
2024-01-11T04:11:31.936Z,42.42
2024-01-11T04:13:59.326Z,43.95
2024-01-11T04:16:26.396Z,44.38
2024-01-11T04:18:53.813Z,43.60
2024-01-11T04:21:23.580Z,43.67
2024-01-11T04:23:52.073Z,44.40
2024-01-11T04:26:19.207Z,44.55
2024-01-11T04:28:47.684Z,41.13
2024-01-11T04:31:18.310Z,41.28
2024-01-11T04:33:47.331Z,40.58
2024-01-11T04:36:15.036Z,41.72
2024-01-11T04:38:42.415Z,39.30
2024-01-11T04:41:14.474Z,38.00
2024-01-11T04:43:43.945Z,39.05
2024-01-11T04:46:22.443Z,40.63
2024-01-11T04:48:51.510Z,37.78
2024-01-11T04:51:19.612Z,40.58
2024-01-11T04:53:48.198Z,43.17
2024-01-11T04:56:17.266Z,43.38
2024-01-11T04:58:47.085Z,42.13
2024-01-11T05:01:16.957Z,42.83
2024-01-11T05:03:47.516Z,42.17
2024-01-11T05:06:23.340Z,44.38
2024-01-11T05:08:53.956Z,44.22
2024-01-11T05:11:25.942Z,41.90
2024-01-11T05:13:54.079Z,40.78
2024-01-11T05:16:31.061Z,39.17
2024-01-11T05:18:59.818Z,41.03
2024-01-11T05:21:27.520Z,40.40
2024-01-11T05:23:55.101Z,37.83
2024-01-11T05:26:22.649Z,39.35
2024-01-11T05:28:50.055Z,38.25
2024-01-11T05:31:17.742Z,39.08
2024-01-11T05:33:47.114Z,39.42
2024-01-11T05:36:14.401Z,37.50
2024-01-11T05:38:42.086Z,36.92
2024-01-11T05:41:09.935Z,39.15
2024-01-11T05:43:40.455Z,38.50
2024-01-11T05:46:08.483Z,37.55
2024-01-11T05:48:36.554Z,36.17
2024-01-11T05:51:03.793Z,38.70
2024-01-11T05:53:31.102Z,40.28
2024-01-11T05:55:58.269Z,37.75
2024-01-11T05:58:25.590Z,36.33
2024-01-11T06:00:52.696Z,38.42
2024-01-11T06:03:20.090Z,38.42
2024-01-11T06:05:47.595Z,36.80
2024-01-11T06:08:14.960Z,38.50
2024-01-11T06:10:42.754Z,38.85
2024-01-11T06:13:10.876Z,41.22
2024-01-11T06:15:37.965Z,39.40
2024-01-11T06:18:06.302Z,38.22
2024-01-11T06:20:33.666Z,39.55
2024-01-11T06:23:01.199Z,37.97
2024-01-11T06:25:28.895Z,36.33
2024-01-11T06:27:56.716Z,36.05
2024-01-11T06:30:23.704Z,36.15
2024-01-11T06:32:51.210Z,39.72
2024-01-11T06:35:18.517Z,37.88
2024-01-11T06:37:45.832Z,43.08
2024-01-11T06:40:12.855Z,38.70
2024-01-11T06:42:40.123Z,35.67
2024-01-11T06:45:07.944Z,35.20
2024-01-11T06:47:35.500Z,34.53
2024-01-11T06:50:04.087Z,37.13
2024-01-11T06:52:31.427Z,36.03
2024-01-11T06:54:58.646Z,37.67
2024-01-11T06:57:25.950Z,37.80
2024-01-11T06:59:53.152Z,39.83
2024-01-11T07:02:20.531Z,43.60
2024-01-11T07:04:47.493Z,44.22
2024-01-11T07:07:14.933Z,41.55
2024-01-11T07:09:41.873Z,39.35
2024-01-11T07:12:10.094Z,37.45
2024-01-11T07:14:37.629Z,36.92
2024-01-11T07:17:05.593Z,38.65
2024-01-11T07:19:33.922Z,38.47
2024-01-11T07:22:02.856Z,35.22
2024-01-11T07:24:38.466Z,35.53
2024-01-11T07:27:07.490Z,49.65
2024-01-11T07:29:35.725Z,38.53
2024-01-11T07:32:05.408Z,36.25
2024-01-11T07:34:34.085Z,38.42
2024-01-11T07:37:01.616Z,38.22
2024-01-11T07:39:28.834Z,36.08
2024-01-11T07:41:56.199Z,34.83
2024-01-11T07:44:23.345Z,37.42
2024-01-11T07:46:54.325Z,36.97
2024-01-11T07:49:23.046Z,36.30
2024-01-11T07:51:50.566Z,38.15
2024-01-11T07:54:17.821Z,37.95
2024-01-11T07:56:45.224Z,35.55
2024-01-11T07:59:16.226Z,32.58
2024-01-11T08:01:44.039Z,34.58
2024-01-11T08:04:11.233Z,36.90
2024-01-11T08:06:39.033Z,35.38
2024-01-11T08:09:06.801Z,32.45
2024-01-11T08:11:36.675Z,36.22
2024-01-11T08:14:07.245Z,36.95
2024-01-11T08:16:34.930Z,36.95
2024-01-11T08:19:02.518Z,36.03
2024-01-11T08:21:30.386Z,34.42
2024-01-11T08:24:01.565Z,33.95
2024-01-11T08:26:33.290Z,32.97
2024-01-11T08:29:00.515Z,40.65
2024-01-11T08:31:28.995Z,34.42
2024-01-11T08:33:56.310Z,36.00
2024-01-11T08:36:23.634Z,34.65
2024-01-11T08:38:51.050Z,38.17
2024-01-11T08:41:18.576Z,39.25
2024-01-11T08:43:45.569Z,37.28
2024-01-11T08:46:12.798Z,36.13
2024-01-11T08:48:39.846Z,36.10
2024-01-11T08:51:07.656Z,41.65
2024-01-11T08:53:34.810Z,34.58
2024-01-11T08:56:02.403Z,35.97
2024-01-11T08:58:29.615Z,38.20
2024-01-11T09:00:57.039Z,34.90
2024-01-11T09:03:24.129Z,37.70
2024-01-11T09:05:51.946Z,35.15
2024-01-11T09:08:19.318Z,35.22
2024-01-11T09:10:47.437Z,38.30
2024-01-11T09:13:15.198Z,38.63
2024-01-11T09:15:43.571Z,34.15
2024-01-11T09:18:11.058Z,35.33
2024-01-11T09:20:38.677Z,37.55
2024-01-11T09:23:07.280Z,37.38
2024-01-11T09:25:37.095Z,38.75
2024-01-11T09:28:04.894Z,36.85
2024-01-11T09:30:32.296Z,37.28
2024-01-11T09:32:59.404Z,35.30
2024-01-11T09:35:26.827Z,35.03
2024-01-11T09:37:53.953Z,35.95
2024-01-11T09:40:21.669Z,38.17
2024-01-11T09:42:49.841Z,39.38
2024-01-11T09:45:18.551Z,37.90
2024-01-11T09:47:47.372Z,35.42
2024-01-11T09:50:19.333Z,41.55
2024-01-11T09:52:51.634Z,39.70
2024-01-11T09:55:19.889Z,39.25
2024-01-11T09:58:00.875Z,38.72
2024-01-11T10:00:29.827Z,36.63
2024-01-11T10:02:56.967Z,38.55
2024-01-11T10:05:24.593Z,34.40
2024-01-11T10:07:51.695Z,34.88
2024-01-11T10:10:19.044Z,34.75
2024-01-11T10:12:46.336Z,39.17
2024-01-11T10:15:15.021Z,36.92
2024-01-11T10:17:47.006Z,36.45
2024-01-11T10:20:15.727Z,34.08
2024-01-11T10:22:44.107Z,33.30
2024-01-11T10:25:45.576Z,37.15
2024-01-11T10:28:15.631Z,37.33
2024-01-11T10:30:47.403Z,31.65
2024-01-11T10:33:14.571Z,32.45
2024-01-11T10:35:42.572Z,38.33
2024-01-11T10:38:11.773Z,34.55
2024-01-11T10:40:39.140Z,34.78
2024-01-11T10:43:12.673Z,35.47
2024-01-11T10:45:40.555Z,28.27
2024-01-11T10:48:18.177Z,36.42
2024-01-11T10:50:47.633Z,33.80
2024-01-11T10:53:35.568Z,33.95
2024-01-11T10:56:08.433Z,34.25
2024-01-11T10:58:36.814Z,35.25
2024-01-11T11:01:05.758Z,35.03
2024-01-11T11:03:35.613Z,34.78
2024-01-11T11:06:05.340Z,35.15
2024-01-11T11:08:33.319Z,35.83
2024-01-11T11:11:05.530Z,31.67
2024-01-11T11:13:52.650Z,34.35
2024-01-11T11:16:21.091Z,36.33
2024-01-11T11:18:48.452Z,40.35
2024-01-11T11:21:16.503Z,36.90
2024-01-11T11:24:00.836Z,37.38
2024-01-11T11:26:50.736Z,36.50
2024-01-11T11:29:19.175Z,35.30
2024-01-11T11:31:49.025Z,31.90
2024-01-11T11:34:17.658Z,35.40
2024-01-11T11:36:47.957Z,34.22
2024-01-11T11:39:15.511Z,34.20
2024-01-11T11:41:44.026Z,31.67
2024-01-11T11:44:17.008Z,33.60
2024-01-11T11:46:46.459Z,33.97
2024-01-11T11:49:14.859Z,35.47
2024-01-11T11:51:45.096Z,37.10
2024-01-11T11:54:34.268Z,34.92
2024-01-11T11:57:01.825Z,34.55
2024-01-11T11:59:30.022Z,32.15
2024-01-11T12:02:00.593Z,33.63
2024-01-11T12:04:27.986Z,33.45
2024-01-11T12:06:55.746Z,34.28
2024-01-11T12:09:24.467Z,33.08
2024-01-11T12:12:02.141Z,35.05
2024-01-11T12:14:35.311Z,34.60
2024-01-11T12:17:05.294Z,33.35
2024-01-11T12:19:32.406Z,37.00
2024-01-11T12:22:01.283Z,36.42
2024-01-11T12:24:28.802Z,36.75
2024-01-11T12:26:57.170Z,38.65
2024-01-11T12:29:24.715Z,41.38
2024-01-11T12:31:53.437Z,39.22
2024-01-11T12:34:22.312Z,36.80
2024-01-11T12:36:49.816Z,36.10
2024-01-11T12:39:18.280Z,35.92
2024-01-11T12:41:45.825Z,36.90
2024-01-11T12:44:13.010Z,37.63
2024-01-11T12:46:56.528Z,36.28
2024-01-11T12:49:24.129Z,34.35
2024-01-11T12:51:51.612Z,34.42
2024-01-11T12:54:20.649Z,34.05
2024-01-11T12:56:48.122Z,34.33
2024-01-11T12:59:17.608Z,34.10
2024-01-11T13:01:45.097Z,32.78
2024-01-11T13:04:13.113Z,31.48
2024-01-11T13:06:40.980Z,34.80
2024-01-11T13:09:09.368Z,32.70
2024-01-11T13:11:36.876Z,31.45
2024-01-11T13:14:07.937Z,32.40
2024-01-11T13:16:35.463Z,34.28
2024-01-11T13:19:08.066Z,32.50
2024-01-11T13:21:40.832Z,32.20
2024-01-11T13:24:11.157Z,32.40
2024-01-11T13:26:38.640Z,31.35
2024-01-11T13:29:09.156Z,32.15
2024-01-11T13:31:36.419Z,31.70
2024-01-11T13:34:04.781Z,27.63
2024-01-11T13:36:32.343Z,29.17
2024-01-11T13:38:59.294Z,28.38
2024-01-11T13:41:26.772Z,29.38
2024-01-11T13:43:55.596Z,33.42
2024-01-11T13:46:23.079Z,31.92
2024-01-11T13:48:50.136Z,29.63
2024-01-11T13:51:17.603Z,32.50
2024-01-11T13:53:44.757Z,31.52
2024-01-11T13:56:12.296Z,31.00
2024-01-11T13:58:39.439Z,27.65
2024-01-11T14:01:06.841Z,28.95
2024-01-11T14:03:33.922Z,28.90
2024-01-11T14:06:01.770Z,30.55
2024-01-11T14:08:29.095Z,30.40
2024-01-11T14:10:56.522Z,27.48
2024-01-11T14:13:23.533Z,26.70
2024-01-11T14:15:52.257Z,27.17
2024-01-11T14:18:20.394Z,28.80
2024-01-11T14:20:48.245Z,29.67
2024-01-11T14:23:15.373Z,28.23
2024-01-11T14:25:42.874Z,32.55
2024-01-11T14:28:09.925Z,28.58
2024-01-11T14:30:37.332Z,29.85
2024-01-11T14:33:05.146Z,29.90
2024-01-11T14:35:32.662Z,27.75
2024-01-11T14:37:59.770Z,28.58
2024-01-11T14:40:28.502Z,26.98
2024-01-11T14:42:56.794Z,28.63
2024-01-11T14:45:24.077Z,28.60
2024-01-11T14:47:51.148Z,29.15
2024-01-11T14:50:18.628Z,28.30
2024-01-11T14:52:45.712Z,26.50
2024-01-11T14:55:12.939Z,27.60
2024-01-11T14:58:25.605Z,26.77
2024-01-11T15:01:02.374Z,26.13
2024-01-11T15:03:29.380Z,28.08
2024-01-11T15:05:57.105Z,28.75
2024-01-11T15:08:24.211Z,27.25
2024-01-11T15:10:51.551Z,30.38
2024-01-11T15:13:18.538Z,27.15
2024-01-11T15:15:46.071Z,28.73
2024-01-11T15:18:13.465Z,26.75
2024-01-11T15:20:42.581Z,26.48
2024-01-11T15:23:09.774Z,27.10
2024-01-11T15:25:45.597Z,27.17
2024-01-11T15:28:27.637Z,25.58
2024-01-11T15:30:55.053Z,27.85
2024-01-11T15:33:22.235Z,28.70
2024-01-11T15:35:49.697Z,27.77
2024-01-11T15:38:34.992Z,25.73
2024-01-11T15:41:24.616Z,27.95
2024-01-11T15:43:51.856Z,27.42
2024-01-11T15:46:19.186Z,28.95
2024-01-11T15:49:28.193Z,27.77
2024-01-11T15:51:55.535Z,28.83
2024-01-11T15:54:22.710Z,26.20
2024-01-11T15:56:50.377Z,26.95
2024-01-11T15:59:23.924Z,26.52
2024-01-11T16:02:00.724Z,27.17
2024-01-11T16:04:33.565Z,25.95
2024-01-11T16:07:01.056Z,27.55
2024-01-11T16:09:28.261Z,27.38
2024-01-11T16:12:02.344Z,28.80
2024-01-11T16:14:32.268Z,27.10
2024-01-11T16:16:59.771Z,28.17
2024-01-11T16:19:26.909Z,26.73
2024-01-11T16:21:54.273Z,26.90
2024-01-11T16:24:21.239Z,29.25
2024-01-11T16:26:55.369Z,29.80
2024-01-11T16:29:22.541Z,30.55
2024-01-11T16:31:51.549Z,29.10
2024-01-11T16:34:18.556Z,28.00
2024-01-11T16:36:46.176Z,28.23
2024-01-11T16:39:13.237Z,28.15
2024-01-11T16:41:42.294Z,27.23
2024-01-11T16:44:10.273Z,26.73
2024-01-11T16:46:37.739Z,27.83
2024-01-11T16:49:05.241Z,26.60
2024-01-11T16:51:33.235Z,26.20
2024-01-11T16:54:00.376Z,25.50
2024-01-11T16:56:28.001Z,25.40
2024-01-11T16:59:25.515Z,26.75
2024-01-11T17:01:52.949Z,23.85
2024-01-11T17:04:19.989Z,25.50
2024-01-11T17:06:47.439Z,25.58
2024-01-11T17:09:14.447Z,26.83
2024-01-11T17:11:42.029Z,26.15
2024-01-11T17:14:09.638Z,24.25
2024-01-11T17:16:37.391Z,23.95
2024-01-11T17:19:04.555Z,23.15
2024-01-11T17:21:32.405Z,24.73
2024-01-11T17:23:59.518Z,24.33
2024-01-11T17:26:26.929Z,24.38
2024-01-11T17:29:06.145Z,26.27
2024-01-11T17:31:33.751Z,30.40
2024-01-11T17:34:01.038Z,27.92
2024-01-11T17:36:28.855Z,28.27
2024-01-11T17:39:49.945Z,24.73
2024-01-11T17:42:18.629Z,29.45
2024-01-11T17:44:46.263Z,28.15
2024-01-11T17:47:13.832Z,25.92
2024-01-11T17:49:42.930Z,26.33
2024-01-11T17:52:10.638Z,24.05
2024-01-11T17:54:40.861Z,24.27
2024-01-11T17:57:10.789Z,25.60
2024-01-11T17:59:37.826Z,25.00
2024-01-11T18:02:05.278Z,24.08
2024-01-11T18:04:32.431Z,26.58
2024-01-11T18:06:59.752Z,25.50
2024-01-11T18:09:26.983Z,25.42
2024-01-11T18:11:54.278Z,26.63
2024-01-11T18:14:21.540Z,30.55
2024-01-11T18:16:48.921Z,31.17
2024-01-11T18:19:16.000Z,30.75
2024-01-11T18:21:43.794Z,29.10
2024-01-11T18:24:10.940Z,31.42
2024-01-11T18:26:38.216Z,30.67
2024-01-11T18:29:05.420Z,30.40
2024-01-11T18:31:32.721Z,28.83
2024-01-11T18:33:59.798Z,29.70
2024-01-11T18:36:27.033Z,30.15
2024-01-11T18:38:57.524Z,30.30
2024-01-11T18:41:25.140Z,27.05
2024-01-11T18:43:52.188Z,24.85
2024-01-11T18:46:21.751Z,25.55
2024-01-11T18:48:49.105Z,23.98
2024-01-11T18:51:16.542Z,22.45
2024-01-11T18:54:02.739Z,22.08
2024-01-11T18:56:30.619Z,21.50
2024-01-11T19:02:25.205Z,21.42
2024-01-11T19:04:52.579Z,24.88
2024-01-11T19:07:20.525Z,21.95
2024-01-11T19:09:48.216Z,20.90
2024-01-11T19:12:15.624Z,21.73
2024-01-11T19:14:59.295Z,23.70
2024-01-11T19:17:27.555Z,22.23
2024-01-11T19:19:56.538Z,21.85
2024-01-11T19:22:24.194Z,23.40
2024-01-11T19:24:51.220Z,23.85
2024-01-11T19:27:19.105Z,25.67
2024-01-11T19:29:46.541Z,25.50
2024-01-11T19:32:14.209Z,23.95
2024-01-11T19:34:41.218Z,25.58
2024-01-11T19:37:08.827Z,23.77
2024-01-11T19:39:36.051Z,22.67
2024-01-11T19:42:04.219Z,25.00
2024-01-11T19:44:32.089Z,25.65
2024-01-11T19:46:59.498Z,24.10
2024-01-11T19:49:35.722Z,25.45
2024-01-11T19:52:03.291Z,24.58
2024-01-11T19:54:30.685Z,26.00
2024-01-11T19:57:46.047Z,28.17
2024-01-11T20:00:19.843Z,27.92
2024-01-11T20:02:47.000Z,28.35
2024-01-11T20:05:14.644Z,31.55
2024-01-11T20:08:03.395Z,27.63
2024-01-11T20:10:35.612Z,28.17
2024-01-11T20:13:02.913Z,29.15
2024-01-11T20:15:30.917Z,29.92
2024-01-11T20:17:58.299Z,29.15
2024-01-11T20:20:25.606Z,27.67
2024-01-11T20:22:52.616Z,27.48
2024-01-11T20:25:20.448Z,27.92
2024-01-11T20:27:47.614Z,30.27
2024-01-11T20:30:15.104Z,29.25
2024-01-11T20:32:42.283Z,27.75
2024-01-11T20:35:10.029Z,28.90
2024-01-11T20:37:45.196Z,28.27
2024-01-11T20:40:12.743Z,27.17
2024-01-11T20:42:57.485Z,27.48
2024-01-11T20:45:40.423Z,27.77
2024-01-11T20:48:21.142Z,24.38
2024-01-11T20:50:49.382Z,23.50
2024-01-11T20:53:16.911Z,26.85
2024-01-11T20:55:44.684Z,23.55
2024-01-11T20:58:11.766Z,24.17
2024-01-11T21:00:39.964Z,25.17
2024-01-11T21:03:07.430Z,21.20
2024-01-11T21:05:35.832Z,23.05
2024-01-11T21:08:04.627Z,24.58
2024-01-11T21:10:32.476Z,24.45
2024-01-11T21:12:59.539Z,24.92
2024-01-11T21:15:26.878Z,26.25
2024-01-11T21:17:54.478Z,26.40
2024-01-11T21:20:21.991Z,27.38
2024-01-11T21:22:49.028Z,28.85
2024-01-11T21:25:16.628Z,28.67
2024-01-11T21:27:43.611Z,29.70
2024-01-11T21:30:12.468Z,27.95
2024-01-11T21:32:39.681Z,30.73
2024-01-11T21:35:09.024Z,30.52
2024-01-11T21:37:36.200Z,30.20
2024-01-11T21:40:05.256Z,27.35
2024-01-11T21:42:33.318Z,29.77
2024-01-11T21:45:26.757Z,31.40
2024-01-11T21:47:53.881Z,30.85
2024-01-11T21:50:21.616Z,29.48
2024-01-11T21:52:49.235Z,27.77
2024-01-11T21:55:16.788Z,28.05
2024-01-11T21:57:44.524Z,28.02
2024-01-11T22:00:13.599Z,29.63
2024-01-11T22:02:49.078Z,28.60
2024-01-11T22:05:38.239Z,28.45
2024-01-11T22:08:13.796Z,28.38
2024-01-11T22:10:45.298Z,27.50
2024-01-11T22:13:12.571Z,28.95
2024-01-11T22:15:39.827Z,27.75
2024-01-11T22:18:07.621Z,27.77
2024-01-11T22:20:36.352Z,26.38
2024-01-11T22:23:03.549Z,25.70
2024-01-11T22:25:30.815Z,26.52
2024-01-11T22:27:57.856Z,24.80
2024-01-11T22:30:26.151Z,25.63
2024-01-11T22:32:53.425Z,25.88
2024-01-11T22:35:20.934Z,22.45
2024-01-11T22:37:48.014Z,26.60
2024-01-11T22:40:15.811Z,25.75
2024-01-11T22:42:42.865Z,26.10
2024-01-11T22:45:11.648Z,25.42
2024-01-11T22:47:38.774Z,24.52
2024-01-11T22:50:07.171Z,22.83
2024-01-11T22:52:34.164Z,22.13
2024-01-11T22:55:01.529Z,24.73
2024-01-11T22:57:28.604Z,24.73
2024-01-11T22:59:55.890Z,23.05
2024-01-11T23:02:23.274Z,24.90
2024-01-11T23:04:50.932Z,23.05
2024-01-11T23:07:18.602Z,22.58
2024-01-11T23:09:45.863Z,22.65
2024-01-11T23:12:12.890Z,23.42
2024-01-11T23:14:40.142Z,24.13
2024-01-11T23:17:07.664Z,22.40
2024-01-11T23:19:35.075Z,22.38
2024-01-11T23:22:02.256Z,22.95
2024-01-11T23:24:29.471Z,21.67
2024-01-11T23:26:56.530Z,21.98
2024-01-11T23:29:23.840Z,26.00
2024-01-11T23:31:51.626Z,22.45
2024-01-11T23:34:19.104Z,24.63
2024-01-11T23:36:46.303Z,24.85
2024-01-11T23:39:13.616Z,22.92
2024-01-11T23:41:42.608Z,22.60
2024-01-11T23:44:09.919Z,23.08
2024-01-11T23:46:36.916Z,22.52
2024-01-11T23:49:04.407Z,23.42
2024-01-11T23:51:31.919Z,23.58
2024-01-11T23:53:59.294Z,23.73
2024-01-11T23:56:26.329Z,23.65
2024-01-11T23:58:53.598Z,25.52
